Kezdőlap
METAR-TAF:

METAR-TAF

Repülőterek :

Koror, Babeldaob, Palau

földrajzi szélesség: 07-22N, földrajzi hosszúság: 134-32E, magasság: 54 m

Jelenlegi meteorológiai megfigyelések

A jelentés 13 perccel ezelõtt készült, 20:50 UTC
Északkeleti szél 5 kt
Hőmérséklet 26°C
Páratartalom 94%
Légköri nyomás 1009 hPa
Látótávolság: 16.1 km
Szórványos felhőzet 1400 lábon, Cumulonimbus.
Szakadozott felhőzet 11000 lábon
Szakadozott felhőzet 29000 lábon
Záporok a közelben

METAR: PTRO 262050Z 04005KT 10SM VCSH SCT014CB BKN110 BKN290 26/25 A2979 RMK VCSH E CB ALQDS

Idő: 06:03 (21:03 UTC)

Előrejelzés

A jelentés 3 órával és 29 perccel ezelõtt készült, 17:34 UTC
Az előrejelzés 26-én 18 óra UTC és 27-én 18 óra UTC között érvényes
Kelet-északkeleti szél 9 kt széllökések: 19 kt
Látótávolság: 10 km
Szórványos felhőzet 1500 lábon
Szakadozott felhőzet 12000 lábon
Záporok a közelben,

TAF: PTRO 261734Z 2618/2718 07009G19KT P6SM VCSH SCT015 BKN120

Meteorológiai megfigyelések és előrejelzések több, mint 4000 repülőtéren (METAR és TAF jelentéseket).

A térképen piros és sárga pontok jelzik az elérhető meteorológiai állomásokat.

Mozgassa az egeret a pont fölött, hogy megjelenjen az állomás neve.

Azután kattintson az időjárási megfigyelések és előrejelzések megtekintéséhez.

A térkép megváltoztatása: kattintson a fekete keresztel jelölt zöld gombra ráközelítéshez, a vonallal jelölt zöld gombra távolításhoz, vagy a zöld nyilakra a szomszédos térképek eléréséhez.


METAR-TAF: